Larache, Morocco
Current Conditions -  °F | °C
As of 10:30 PM on Thursday 18 Dec 2014 (Local Time) from GMTT Reporting Station
Scattered Clouds Scattered Clouds  
Wind Chill: 50°   Ceiling: Unl
Heat Index: 50°   Visibility: 5mi
Dew Point: 48°   Wind: 5mph
Humidity: 94%   Direction: 110°ESE
Pressure: 30.39"   Gusts: NA
Location:  35.2°N, 6.16°W
Report Text: GMTT 182130Z 11004KT 8000 SCT016 10/09 Q1029 NOSIG
Loading
Personal Weather Stations






























Interactive Weather Map New forecast layout! Learn more

10-Day Weather Forecast

Advertisements
Track Severe Weather on mobile